Time;durP1;ratioP1;P1;durP2;ratioP2;P2;SDS_P1;SDS_P2;PMS_P1;PMS_P2;Temp;Humidity;BMP_temperature;BMP_pressure;BME280_temperature;BME280_humidity;BME280_pressure;Samples;Min_cycle;Max_cycle;Signal;HPM_P1;HPM_P2
2023/09/15 00:00:42;;;;;;;0.22;0.22;;;14.50;99.90;;;;;;5127350;27;20038;-68
2023/09/15 00:03:08;;;;;;;1.00;1.00;;;14.60;99.90;;;;;;5123688;27;20039;-68
2023/09/15 00:05:34;;;;;;;0.95;0.25;;;14.60;99.90;;;;;;5125946;27;20054;-68
2023/09/15 00:08:04;;;;;;;0.20;0.20;;;14.50;99.90;;;;;;5125936;27;20039;-68
2023/09/15 00:10:31;;;;;;;0.77;0.57;;;14.60;99.90;;;;;;5125518;27;20083;-68
2023/09/15 00:12:58;;;;;;;0.10;0.10;;;14.40;99.90;;;;;;5105087;28;20039;-68
2023/09/15 00:15:24;;;;;;;0.10;0.10;;;14.50;99.90;;;;;;5110207;27;20050;-68
2023/09/15 00:17:50;;;;;;;0.47;0.25;;;14.50;99.90;;;;;;5105552;27;20055;-68
2023/09/15 00:20:16;;;;;;;0.22;0.22;;;14.40;99.90;;;;;;5107327;27;20053;-68
2023/09/15 00:22:49;;;;;;;0.22;0.22;;;14.50;99.90;;;;;;5103859;27;20479;-68
2023/09/15 00:25:18;;;;;;;0.60;0.52;;;14.40;99.90;;;;;;5106567;27;20051;-68
2023/09/15 00:27:45;;;;;;;0.43;0.38;;;14.30;99.90;;;;;;5105154;27;20047;-68
2023/09/15 00:30:13;;;;;;;0.08;0.08;;;14.30;99.90;;;;;;5121920;27;20050;-68
2023/09/15 00:32:39;;;;;;;0.15;0.15;;;14.30;99.90;;;;;;5106093;28;20054;-68
2023/09/15 00:35:05;;;;;;;0.00;0.00;;;14.20;99.90;;;;;;5125311;27;20043;-68
2023/09/15 00:37:31;;;;;;;0.08;0.08;;;14.20;99.90;;;;;;5122982;27;20053;-68
2023/09/15 00:39:57;;;;;;;0.82;0.77;;;14.30;99.90;;;;;;5121961;27;20040;-68
2023/09/15 00:42:24;;;;;;;0.20;0.20;;;14.30;99.90;;;;;;5125550;27;20378;-68
2023/09/15 00:44:51;;;;;;;0.00;0.00;;;14.20;99.90;;;;;;5126049;27;20183;-68
2023/09/15 00:47:17;;;;;;;0.00;0.00;;;14.20;99.90;;;;;;5123487;27;20047;-68
2023/09/15 00:49:44;;;;;;;0.10;0.10;;;14.20;99.90;;;;;;5117715;27;20058;-68
2023/09/15 00:52:10;;;;;;;0.32;0.32;;;14.20;99.90;;;;;;5125189;27;20495;-68
2023/09/15 00:54:37;;;;;;;0.00;0.00;;;14.10;99.90;;;;;;5126543;27;20041;-68
2023/09/15 00:57:04;;;;;;;0.10;0.10;;;14.10;99.90;;;;;;5097730;27;20043;-68
2023/09/15 00:59:30;;;;;;;0.00;0.00;;;14.10;99.90;;;;;;5129555;27;20038;-68
2023/09/15 01:01:56;;;;;;;0.00;0.00;;;14.00;99.90;;;;;;5102353;27;20046;-68
2023/09/15 01:04:23;;;;;;;0.15;0.15;;;14.00;99.90;;;;;;5124961;27;20039;-68
2023/09/15 01:06:50;;;;;;;0.35;0.35;;;14.10;99.90;;;;;;5122043;27;20046;-68
2023/09/15 01:09:16;;;;;;;0.77;0.77;;;14.00;99.90;;;;;;5104005;27;20044;-68
2023/09/15 01:11:42;;;;;;;0.08;0.08;;;14.00;99.90;;;;;;5125761;27;20471;-68
2023/09/15 01:14:08;;;;;;;0.20;0.20;;;14.00;99.90;;;;;;5125808;27;20027;-68
2023/09/15 01:16:41;;;;;;;0.13;0.13;;;14.00;99.90;;;;;;5122083;27;20047;-68
2023/09/15 01:19:22;;;;;;;0.00;0.00;;;14.00;99.90;;;;;;5116802;27;20047;-68
2023/09/15 01:22:25;;;;;;;0.08;0.08;;;13.90;99.90;;;;;;5122048;27;20481;-68
2023/09/15 01:25:18;;;;;;;0.10;0.10;;;14.00;99.90;;;;;;5093527;27;20063;-68
2023/09/15 01:28:04;;;;;;;0.67;0.47;;;14.00;99.90;;;;;;5115178;27;20063;-68
2023/09/15 01:30:31;;;;;;;0.00;0.00;;;13.90;99.90;;;;;;5104968;28;20039;-68
2023/09/15 01:32:57;;;;;;;0.35;0.35;;;13.90;99.90;;;;;;5124751;27;20047;-68
2023/09/15 01:35:25;;;;;;;0.20;0.20;;;13.80;99.90;;;;;;5125309;27;20039;-68
2023/09/15 01:37:50;;;;;;;0.08;0.08;;;13.80;99.90;;;;;;5099906;27;20531;-67
2023/09/15 01:40:16;;;;;;;0.10;0.10;;;13.80;99.90;;;;;;5120940;27;20048;-68
2023/09/15 01:42:43;;;;;;;0.40;0.35;;;13.80;99.90;;;;;;5123481;27;20126;-68
2023/09/15 01:45:10;;;;;;;0.35;0.35;;;13.70;99.90;;;;;;5120269;27;20483;-68
2023/09/15 01:47:37;;;;;;;1.45;0.68;;;13.80;99.90;;;;;;5120423;27;20100;-68
2023/09/15 01:50:04;;;;;;;0.10;0.10;;;13.70;99.90;;;;;;5121601;27;20101;-68
2023/09/15 01:52:30;;;;;;;0.00;0.00;;;13.70;99.90;;;;;;5123651;27;20118;-68
2023/09/15 01:54:57;;;;;;;0.00;0.00;;;13.60;99.90;;;;;;5124639;27;20134;-68
2023/09/15 01:57:23;;;;;;;0.08;0.08;;;13.70;99.90;;;;;;5121568;27;20062;-68
2023/09/15 01:59:49;;;;;;;0.00;0.00;;;13.70;99.90;;;;;;5121526;27;20483;-68
2023/09/15 02:02:14;;;;;;;0.00;0.00;;;13.70;99.90;;;;;;5100883;27;20067;-68
2023/09/15 02:04:40;;;;;;;0.20;0.20;;;13.70;99.90;;;;;;5124631;27;20078;-68
2023/09/15 02:07:07;;;;;;;0.10;0.10;;;13.70;99.90;;;;;;5123972;27;20055;-68
2023/09/15 02:09:32;;;;;;;0.10;0.10;;;13.70;99.90;;;;;;5111724;27;20079;-68
2023/09/15 02:11:58;;;;;;;0.00;0.00;;;13.60;99.90;;;;;;5121213;27;20086;-68
2023/09/15 02:14:25;;;;;;;0.10;0.10;;;13.70;99.90;;;;;;5101823;27;20048;-68
2023/09/15 02:16:51;;;;;;;0.30;0.30;;;13.60;99.90;;;;;;5111346;27;20430;-68
2023/09/15 02:19:18;;;;;;;0.85;0.15;;;13.60;99.90;;;;;;5124410;27;20039;-68
2023/09/15 02:21:44;;;;;;;0.00;0.00;;;13.60;99.90;;;;;;5095353;27;20058;-68
2023/09/15 02:24:10;;;;;;;0.28;0.20;;;13.60;99.90;;;;;;5106727;27;20031;-68
2023/09/15 02:26:35;;;;;;;0.10;0.10;;;13.60;99.90;;;;;;5123267;27;20094;-68
2023/09/15 02:29:01;;;;;;;0.00;0.00;;;13.60;99.90;;;;;;5122286;27;20482;-68
2023/09/15 02:31:29;;;;;;;0.20;0.20;;;13.60;99.90;;;;;;5117697;27;20134;-68
2023/09/15 02:33:59;;;;;;;0.10;0.10;;;13.60;99.90;;;;;;5118540;27;20051;-68
2023/09/15 02:36:25;;;;;;;0.38;0.38;;;13.60;99.90;;;;;;5126862;27;20047;-68
2023/09/15 02:38:54;;;;;;;0.00;0.00;;;13.60;99.90;;;;;;5121723;27;20043;-68
2023/09/15 02:41:20;;;;;;;0.10;0.10;;;13.50;99.90;;;;;;5119485;27;20082;-68
2023/09/15 02:43:46;;;;;;;2.08;0.65;;;13.50;99.90;;;;;;5121195;27;20050;-68
2023/09/15 02:46:12;;;;;;;1.38;0.47;;;13.50;99.90;;;;;;5119889;28;20060;-68
2023/09/15 02:48:37;;;;;;;0.00;0.00;;;13.50;99.90;;;;;;5120369;28;20047;-68
2023/09/15 02:51:04;;;;;;;0.20;0.20;;;13.50;99.90;;;;;;5122056;28;20122;-68
2023/09/15 02:53:30;;;;;;;0.03;0.03;;;13.50;99.90;;;;;;5124143;28;20055;-68
2023/09/15 02:56:00;;;;;;;0.08;0.08;;;13.50;99.90;;;;;;5121615;28;20051;-68
2023/09/15 02:58:27;;;;;;;15.70;0.63;;;13.50;99.90;;;;;;5122415;27;20035;-68
2023/09/15 03:00:53;;;;;;;0.43;0.43;;;13.40;99.90;;;;;;5130692;27;20042;-68
2023/09/15 03:03:20;;;;;;;0.28;0.28;;;13.40;99.90;;;;;;5121445;27;20039;-68
2023/09/15 03:05:46;;;;;;;1.10;0.73;;;13.40;99.90;;;;;;5127367;27;20123;-68
2023/09/15 03:08:12;;;;;;;0.00;0.00;;;13.40;99.90;;;;;;5125451;27;20040;-68
2023/09/15 03:10:38;;;;;;;0.10;0.10;;;13.40;99.90;;;;;;5124856;27;20043;-68
2023/09/15 03:13:05;;;;;;;0.50;0.50;;;13.40;99.90;;;;;;5125320;27;20039;-68
2023/09/15 03:15:32;;;;;;;0.20;0.20;;;13.30;99.90;;;;;;5121615;27;20043;-68
2023/09/15 03:17:58;;;;;;;0.00;0.00;;;13.40;99.90;;;;;;5123957;27;20130;-68
2023/09/15 03:20:23;;;;;;;0.82;0.20;;;13.30;99.90;;;;;;5124085;27;20468;-68
2023/09/15 03:22:50;;;;;;;0.00;0.00;;;13.30;99.90;;;;;;5128313;27;20032;-68
2023/09/15 03:25:17;;;;;;;0.03;0.03;;;13.30;99.90;;;;;;5126477;27;20067;-68
2023/09/15 03:27:43;;;;;;;0.17;0.17;;;13.30;99.90;;;;;;5126228;27;20040;-68
2023/09/15 03:30:10;;;;;;;0.00;0.00;;;13.30;99.90;;;;;;5120601;27;20043;-68
2023/09/15 03:32:36;;;;;;;0.20;0.20;;;13.20;99.90;;;;;;5106447;27;20055;-68
2023/09/15 03:35:05;;;;;;;0.32;0.30;;;13.20;99.90;;;;;;5105806;28;20043;-68
2023/09/15 03:37:32;;;;;;;0.65;0.65;;;13.20;99.90;;;;;;5123441;27;20100;-68
2023/09/15 03:39:58;;;;;;;0.08;0.08;;;13.20;99.90;;;;;;5127197;27;20048;-68
2023/09/15 03:42:24;;;;;;;0.75;0.75;;;13.20;99.90;;;;;;5106698;28;20050;-68
2023/09/15 03:44:50;;;;;;;0.10;0.10;;;13.20;99.90;;;;;;5120775;27;20047;-68
2023/09/15 03:47:15;;;;;;;0.38;0.20;;;13.10;99.90;;;;;;5126575;27;20035;-68
2023/09/15 03:49:41;;;;;;;0.05;0.05;;;13.20;99.90;;;;;;5124074;27;20050;-68
2023/09/15 03:52:07;;;;;;;0.03;0.03;;;13.20;99.90;;;;;;5122789;27;20071;-68
2023/09/15 03:54:33;;;;;;;0.20;0.20;;;13.20;99.90;;;;;;5111755;28;20428;-68
2023/09/15 03:56:59;;;;;;;0.47;0.47;;;13.20;99.90;;;;;;5122730;27;20559;-68
2023/09/15 03:59:24;;;;;;;0.20;0.15;;;13.10;99.90;;;;;;5126464;27;20073;-68
2023/09/15 04:01:50;;;;;;;0.00;0.00;;;13.20;99.90;;;;;;5103725;27;20046;-68
2023/09/15 04:04:15;;;;;;;0.08;0.08;;;13.20;99.90;;;;;;5118769;27;20403;-68
2023/09/15 04:06:41;;;;;;;0.17;0.17;;;13.20;99.90;;;;;;5125793;27;20115;-68
2023/09/15 04:09:10;;;;;;;0.77;0.55;;;13.20;99.90;;;;;;5124688;27;20100;-68
2023/09/15 04:11:36;;;;;;;0.57;0.57;;;13.10;99.90;;;;;;5128683;27;20039;-68
2023/09/15 04:14:03;;;;;;;0.20;0.20;;;13.10;99.90;;;;;;5126717;27;20477;-68
2023/09/15 04:16:28;;;;;;;0.00;0.00;;;13.10;99.90;;;;;;5127927;27;20482;-68
2023/09/15 04:18:54;;;;;;;0.63;0.45;;;13.00;99.90;;;;;;5125153;27;20080;-68
2023/09/15 04:21:20;;;;;;;0.10;0.10;;;13.00;99.90;;;;;;5125648;27;20049;-68
2023/09/15 04:23:45;;;;;;;0.28;0.28;;;13.00;99.90;;;;;;5124629;27;20133;-68
2023/09/15 04:26:11;;;;;;;0.10;0.10;;;13.00;99.90;;;;;;5119582;27;20036;-68
2023/09/15 04:28:37;;;;;;;0.10;0.10;;;13.00;99.90;;;;;;5110266;27;20047;-68
2023/09/15 04:31:03;;;;;;;0.20;0.20;;;12.90;99.90;;;;;;5123365;27;20136;-68
2023/09/15 04:33:28;;;;;;;0.10;0.10;;;13.00;99.90;;;;;;5122515;27;20139;-68
2023/09/15 04:35:54;;;;;;;0.00;0.00;;;13.00;99.90;;;;;;5122443;27;20085;-68
2023/09/15 04:38:20;;;;;;;0.20;0.20;;;12.90;99.90;;;;;;5123634;27;20036;-68
2023/09/15 04:40:45;;;;;;;0.10;0.10;;;12.90;99.90;;;;;;5103359;27;20051;-68
2023/09/15 04:43:12;;;;;;;0.10;0.10;;;12.90;99.90;;;;;;5131497;27;20045;-68
2023/09/15 04:45:39;;;;;;;0.30;0.30;;;12.90;99.90;;;;;;5123486;27;20093;-68
2023/09/15 04:48:05;;;;;;;0.10;0.10;;;12.80;99.90;;;;;;5124684;27;20040;-68
2023/09/15 04:50:30;;;;;;;0.00;0.00;;;12.80;99.90;;;;;;5126794;27;20050;-68
2023/09/15 04:52:56;;;;;;;0.05;0.05;;;12.80;99.90;;;;;;5126479;27;20087;-68
2023/09/15 04:55:22;;;;;;;0.17;0.05;;;12.80;99.90;;;;;;5122493;27;20111;-68
2023/09/15 04:57:48;;;;;;;0.10;0.10;;;12.70;99.90;;;;;;5118882;27;20032;-68
2023/09/15 05:00:21;;;;;;;0.40;0.40;;;12.70;99.90;;;;;;5124913;27;20049;-68
2023/09/15 05:02:46;;;;;;;0.00;0.00;;;12.70;99.90;;;;;;5122075;27;20035;-68
2023/09/15 05:05:12;;;;;;;0.00;0.00;;;12.70;99.90;;;;;;5123652;27;20507;-68
2023/09/15 05:07:38;;;;;;;0.15;0.15;;;12.70;99.90;;;;;;5125570;27;20035;-68
2023/09/15 05:10:03;;;;;;;0.10;0.10;;;12.70;99.90;;;;;;5131818;27;20424;-68
2023/09/15 05:12:29;;;;;;;0.30;0.30;;;12.70;99.90;;;;;;5105022;27;20637;-68
2023/09/15 05:14:55;;;;;;;0.47;0.47;;;12.70;99.90;;;;;;5097279;28;20062;-68
2023/09/15 05:17:22;;;;;;;0.13;0.13;;;12.70;99.90;;;;;;5121746;27;20139;-68
2023/09/15 05:19:49;;;;;;;1.88;0.45;;;12.70;99.90;;;;;;5122588;27;20086;-68
2023/09/15 05:22:15;;;;;;;0.00;0.00;;;12.70;99.90;;;;;;5122940;27;20138;-68
2023/09/15 05:24:40;;;;;;;0.00;0.00;;;12.70;99.90;;;;;;5117734;27;20126;-68
2023/09/15 05:27:06;;;;;;;0.00;0.00;;;12.70;99.90;;;;;;5125619;27;20399;-68
2023/09/15 05:29:32;;;;;;;0.00;0.00;;;12.60;99.90;;;;;;5122974;27;20042;-68
2023/09/15 05:31:58;;;;;;;0.40;0.40;;;12.70;99.90;;;;;;5132194;27;20039;-68
2023/09/15 05:34:23;;;;;;;0.47;0.45;;;12.70;99.90;;;;;;5124981;27;20100;-68
2023/09/15 05:36:50;;;;;;;0.75;0.55;;;12.70;99.90;;;;;;5104087;27;20414;-68
2023/09/15 05:39:15;;;;;;;0.47;0.47;;;12.70;99.90;;;;;;5102053;28;20479;-68
2023/09/15 05:41:41;;;;;;;0.00;0.00;;;12.70;99.90;;;;;;5114956;27;20043;-68
2023/09/15 05:44:06;;;;;;;0.73;0.73;;;12.70;99.90;;;;;;5121083;27;20046;-68
2023/09/15 05:46:32;;;;;;;0.00;0.00;;;12.70;99.90;;;;;;5100089;27;20203;-68
2023/09/15 05:48:58;;;;;;;0.28;0.28;;;12.70;99.90;;;;;;5119017;27;20036;-68
2023/09/15 05:51:23;;;;;;;1.45;0.40;;;12.70;99.90;;;;;;5124186;27;20085;-68
2023/09/15 05:53:49;;;;;;;0.00;0.00;;;12.70;99.90;;;;;;5124943;27;20039;-68
2023/09/15 05:56:15;;;;;;;0.30;0.30;;;12.70;99.90;;;;;;5096508;27;20055;-68
2023/09/15 05:58:41;;;;;;;0.15;0.15;;;12.70;99.90;;;;;;5126867;27;20041;-68
2023/09/15 06:01:07;;;;;;;0.30;0.30;;;12.80;99.90;;;;;;5131559;27;20043;-68
2023/09/15 06:03:32;;;;;;;0.08;0.08;;;12.80;99.90;;;;;;5105862;27;20046;-68
2023/09/15 06:05:58;;;;;;;0.25;0.25;;;12.80;99.90;;;;;;5123812;27;20039;-68
2023/09/15 06:08:24;;;;;;;0.00;0.00;;;12.80;99.90;;;;;;5114356;27;20043;-68
2023/09/15 06:10:49;;;;;;;0.13;0.13;;;12.90;99.90;;;;;;5124510;27;20035;-68
2023/09/15 06:13:15;;;;;;;16.50;0.88;;;12.90;99.90;;;;;;5123853;27;20038;-68
2023/09/15 06:15:41;;;;;;;2.10;1.55;;;13.00;99.90;;;;;;5115634;27;20118;-68
2023/09/15 06:18:07;;;;;;;0.03;0.03;;;13.00;99.90;;;;;;5125630;27;20047;-68
2023/09/15 06:20:33;;;;;;;0.10;0.10;;;13.00;99.90;;;;;;5123721;27;20044;-68
2023/09/15 06:23:00;;;;;;;0.10;0.10;;;13.00;99.90;;;;;;5123581;27;20122;-68
2023/09/15 06:25:25;;;;;;;0.10;0.10;;;13.00;99.90;;;;;;5123074;27;20440;-68
2023/09/15 06:27:51;;;;;;;0.98;0.47;;;13.10;99.90;;;;;;5101935;27;20062;-68
2023/09/15 06:30:17;;;;;;;0.17;0.17;;;13.10;99.90;;;;;;5120427;27;20044;-68
2023/09/15 06:32:42;;;;;;;0.20;0.20;;;13.20;99.90;;;;;;5121204;27;20111;-68
2023/09/15 06:35:13;;;;;;;0.05;0.05;;;13.20;99.90;;;;;;5121205;27;20043;-68
2023/09/15 06:37:40;;;;;;;2.40;0.50;;;13.30;99.90;;;;;;5120714;27;20111;-68
2023/09/15 06:40:06;;;;;;;0.20;0.20;;;13.30;99.90;;;;;;5120299;28;20040;-68
2023/09/15 06:42:32;;;;;;;0.05;0.05;;;13.40;99.90;;;;;;5118526;27;20077;-68
2023/09/15 06:44:58;;;;;;;1.55;0.85;;;13.40;99.90;;;;;;5121018;28;20046;-68
2023/09/15 06:47:23;;;;;;;0.08;0.08;;;13.40;99.90;;;;;;5122441;28;20039;-68
2023/09/15 06:49:49;;;;;;;0.10;0.10;;;13.50;99.90;;;;;;5105697;28;20047;-68
2023/09/15 06:52:15;;;;;;;0.00;0.00;;;13.50;99.90;;;;;;5118273;28;20146;-68
2023/09/15 06:54:41;;;;;;;0.22;0.22;;;13.50;99.90;;;;;;5121223;28;20558;-68
2023/09/15 06:57:06;;;;;;;0.40;0.40;;;13.60;99.90;;;;;;5122020;28;20463;-68
2023/09/15 06:59:32;;;;;;;0.10;0.10;;;13.70;99.90;;;;;;5123879;28;20070;-68
2023/09/15 07:01:59;;;;;;;0.03;0.03;;;13.70;99.90;;;;;;5122418;28;20047;-69
2023/09/15 07:04:25;;;;;;;1.60;0.47;;;13.80;99.90;;;;;;5126240;28;20183;-68
2023/09/15 07:06:51;;;;;;;0.20;0.20;;;13.80;99.90;;;;;;5123670;28;20073;-68
2023/09/15 07:09:16;;;;;;;0.00;0.00;;;13.80;99.90;;;;;;5123236;28;20085;-68
2023/09/15 07:11:42;;;;;;;0.10;0.10;;;13.90;99.90;;;;;;5129758;28;20091;-69
2023/09/15 07:14:07;;;;;;;0.10;0.10;;;13.90;99.90;;;;;;5120338;28;20121;-68
2023/09/15 07:16:34;;;;;;;0.05;0.05;;;14.00;99.90;;;;;;5115650;28;20418;-68
2023/09/15 07:18:59;;;;;;;0.30;0.30;;;14.10;99.90;;;;;;5121946;28;20387;-68
2023/09/15 07:21:25;;;;;;;0.30;0.30;;;14.10;99.90;;;;;;5120685;28;20039;-68
2023/09/15 07:23:50;;;;;;;0.20;0.20;;;14.20;99.90;;;;;;5120960;28;20040;-68
2023/09/15 07:26:16;;;;;;;0.22;0.22;;;14.20;99.90;;;;;;5119415;28;20372;-68
2023/09/15 07:28:42;;;;;;;0.00;0.00;;;14.30;99.90;;;;;;5115804;28;20376;-68
2023/09/15 07:31:10;;;;;;;0.10;0.10;;;14.40;99.90;;;;;;5122870;28;20046;-68
2023/09/15 07:33:35;;;;;;;0.00;0.00;;;14.40;99.90;;;;;;5113498;28;20054;-68
2023/09/15 07:36:03;;;;;;;0.00;0.00;;;14.50;99.90;;;;;;5098407;28;20047;-68
2023/09/15 07:38:30;;;;;;;0.00;0.00;;;14.60;99.90;;;;;;5122683;28;20035;-68
2023/09/15 07:40:57;;;;;;;0.10;0.10;;;14.60;99.90;;;;;;5119412;27;20123;-68
2023/09/15 07:43:22;;;;;;;0.60;0.15;;;14.70;99.90;;;;;;5123109;27;20047;-68
2023/09/15 07:45:50;;;;;;;0.47;0.20;;;14.80;99.90;;;;;;5107637;27;20126;-68
2023/09/15 07:48:16;;;;;;;0.00;0.00;;;14.80;99.90;;;;;;5122036;27;20055;-68
2023/09/15 07:50:42;;;;;;;0.17;0.17;;;14.90;99.90;;;;;;5104086;27;20798;-68
2023/09/15 07:53:08;;;;;;;0.55;0.55;;;14.90;99.90;;;;;;5130794;27;20079;-68
2023/09/15 07:55:33;;;;;;;0.20;0.20;;;15.00;99.90;;;;;;5107399;27;20051;-68
2023/09/15 07:57:59;;;;;;;0.03;0.03;;;15.00;99.90;;;;;;5121022;27;20475;-68
2023/09/15 08:00:24;;;;;;;0.00;0.00;;;15.10;99.90;;;;;;5126761;27;20038;-68
2023/09/15 08:02:50;;;;;;;0.00;0.00;;;15.10;99.90;;;;;;5125125;27;20031;-68
2023/09/15 08:05:16;;;;;;;0.08;0.08;;;15.20;99.90;;;;;;5106051;27;20084;-68
2023/09/15 08:07:46;;;;;;;0.10;0.10;;;15.30;99.90;;;;;;5118995;27;20122;-68
2023/09/15 08:10:13;;;;;;;0.00;0.00;;;15.30;99.90;;;;;;5108007;27;20513;-68
2023/09/15 08:12:39;;;;;;;0.00;0.00;;;15.40;99.90;;;;;;5096782;27;20406;-68
2023/09/15 08:15:06;;;;;;;0.10;0.10;;;15.40;99.90;;;;;;5130433;27;20035;-68
2023/09/15 08:17:32;;;;;;;0.00;0.00;;;15.50;99.90;;;;;;5124911;27;20478;-68
2023/09/15 08:19:58;;;;;;;0.00;0.00;;;15.60;99.90;;;;;;5123897;27;20499;-68
2023/09/15 08:22:25;;;;;;;0.00;0.00;;;15.70;99.90;;;;;;5123308;27;20047;-68
2023/09/15 08:24:51;;;;;;;0.52;0.52;;;15.70;99.90;;;;;;5129803;27;20054;-68
2023/09/15 08:27:18;;;;;;;0.00;0.00;;;15.80;99.90;;;;;;5122885;27;20058;-68
2023/09/15 08:29:43;;;;;;;0.00;0.00;;;15.90;99.90;;;;;;5105412;27;20083;-68
2023/09/15 08:32:09;;;;;;;0.65;0.38;;;15.90;99.90;;;;;;5131300;27;20070;-68
2023/09/15 08:34:35;;;;;;;0.00;0.00;;;15.90;99.90;;;;;;5123167;27;20056;-68
2023/09/15 08:37:01;;;;;;;0.03;0.03;;;16.00;99.90;;;;;;5125303;27;20122;-69
2023/09/15 08:39:27;;;;;;;0.10;0.10;;;16.10;99.90;;;;;;5125797;27;20191;-68
2023/09/15 08:42:04;;;;;;;1.20;0.68;;;16.20;99.90;;;;;;5123167;27;20097;-69
2023/09/15 08:44:32;;;;;;;0.10;0.10;;;16.40;99.90;;;;;;5104442;28;20051;-68
2023/09/15 08:47:00;;;;;;;0.00;0.00;;;17.00;99.90;;;;;;5122574;27;20051;-68
2023/09/15 08:49:26;;;;;;;0.10;0.10;;;17.20;99.90;;;;;;5108383;27;20569;-69
2023/09/15 08:51:54;;;;;;;0.10;0.10;;;17.80;99.90;;;;;;5107952;27;20443;-69
2023/09/15 08:54:20;;;;;;;0.10;0.10;;;18.60;99.90;;;;;;5122134;27;20790;-69
2023/09/15 08:56:47;;;;;;;0.00;0.00;;;19.40;99.90;;;;;;5122359;27;20059;-69
2023/09/15 08:59:16;;;;;;;0.10;0.10;;;20.00;99.90;;;;;;5100004;27;20463;-69
2023/09/15 09:01:42;;;;;;;0.10;0.10;;;20.40;99.90;;;;;;5125163;27;20070;-69
2023/09/15 09:04:07;;;;;;;0.10;0.10;;;20.80;99.90;;;;;;5098369;28;20078;-69
2023/09/15 09:06:37;;;;;;;0.03;0.03;;;21.20;99.90;;;;;;5111837;28;20089;-69
2023/09/15 09:09:07;;;;;;;0.00;0.00;;;21.50;99.90;;;;;;5103204;28;20113;-70
2023/09/15 09:11:32;;;;;;;0.10;0.10;;;21.80;99.90;;;;;;5107001;27;20047;-70
2023/09/15 09:13:58;;;;;;;0.00;0.00;;;21.90;99.90;;;;;;5124554;27;20108;-70
2023/09/15 09:16:24;;;;;;;0.00;0.00;;;22.20;99.90;;;;;;5122251;27;20051;-70
2023/09/15 09:18:56;;;;;;;0.38;0.30;;;22.50;99.90;;;;;;5122900;27;20039;-70
2023/09/15 09:21:26;;;;;;;0.00;0.00;;;22.60;99.90;;;;;;5120768;27;20403;-70
2023/09/15 09:23:52;;;;;;;0.10;0.10;;;22.40;99.90;;;;;;5121520;27;20051;-70
2023/09/15 09:26:17;;;;;;;0.00;0.00;;;22.50;99.90;;;;;;5122281;27;20039;-70
2023/09/15 09:28:44;;;;;;;0.00;0.00;;;22.30;99.90;;;;;;5123178;27;20055;-70
2023/09/15 09:31:10;;;;;;;0.00;0.00;;;22.60;99.90;;;;;;5123086;27;20039;-70
2023/09/15 09:33:39;;;;;;;0.00;0.00;;;22.70;99.90;;;;;;5123720;27;20055;-70
2023/09/15 09:36:14;;;;;;;0.80;0.35;;;22.90;99.90;;;;;;5124347;27;20054;-70
2023/09/15 09:38:44;;;;;;;0.15;0.15;;;23.20;99.90;;;;;;5123673;27;20543;-70
2023/09/15 09:41:10;;;;;;;0.00;0.00;;;23.20;99.90;;;;;;5121725;27;20085;-70
2023/09/15 09:43:41;;;;;;;0.00;0.00;;;23.30;99.90;;;;;;5121256;27;20045;-70
2023/09/15 09:46:08;;;;;;;1.35;0.50;;;23.50;99.90;;;;;;5123552;27;20035;-71
2023/09/15 09:48:35;;;;;;;0.10;0.10;;;23.70;99.90;;;;;;5122256;27;20043;-70
2023/09/15 09:51:02;;;;;;;0.00;0.00;;;23.60;99.90;;;;;;5112807;27;20051;-70
2023/09/15 09:53:29;;;;;;;0.00;0.00;;;23.60;99.90;;;;;;5118882;27;20039;-70
2023/09/15 09:55:56;;;;;;;0.03;0.03;;;23.50;99.90;;;;;;5121086;27;20387;-70
2023/09/15 09:58:23;;;;;;;0.10;0.10;;;23.60;99.90;;;;;;5102829;28;20387;-70
2023/09/15 10:00:50;;;;;;;0.00;0.00;;;23.50;99.90;;;;;;5101849;28;20044;-70
2023/09/15 10:03:17;;;;;;;0.15;0.15;;;23.70;99.90;;;;;;5098171;27;20050;-70
2023/09/15 10:05:42;;;;;;;0.43;0.25;;;23.60;99.90;;;;;;5124338;27;20062;-69
2023/09/15 10:08:09;;;;;;;0.82;0.82;;;23.50;99.90;;;;;;5103231;27;20147;-70
2023/09/15 10:10:40;;;;;;;0.28;0.22;;;23.20;99.90;;;;;;5117912;27;20054;-70
2023/09/15 10:13:07;;;;;;;0.55;0.32;;;23.20;99.90;;;;;;5118815;27;20128;-70
2023/09/15 10:15:43;;;;;;;0.20;0.20;;;23.00;99.90;;;;;;5122387;27;20043;-70
2023/09/15 10:18:14;;;;;;;0.25;0.20;;;22.80;99.90;;;;;;5106232;27;20043;-69
2023/09/15 10:20:44;;;;;;;0.00;0.00;;;22.80;99.90;;;;;;5118692;27;20443;-69
2023/09/15 10:23:15;;;;;;;0.17;0.10;;;22.60;99.90;;;;;;5121010;27;20481;-69
2023/09/15 10:25:47;;;;;;;0.20;0.00;;;22.60;99.90;;;;;;5103760;27;20048;-70
2023/09/15 10:28:20;;;;;;;0.10;0.10;;;22.60;99.90;;;;;;5104146;27;20058;-70
2023/09/15 10:30:46;;;;;;;0.00;0.00;;;22.60;99.90;;;;;;5102087;27;20043;-69
2023/09/15 10:33:12;;;;;;;2.53;0.13;;;22.60;99.90;;;;;;5123138;27;20123;-70
2023/09/15 10:35:44;;;;;;;0.32;0.32;;;22.50;99.90;;;;;;5105310;27;20051;-70
2023/09/15 10:38:10;;;;;;;0.05;0.05;;;22.40;99.90;;;;;;5118828;27;20039;-69
2023/09/15 10:40:51;;;;;;;0.08;0.08;;;22.40;99.90;;;;;;5107462;28;20061;-70
2023/09/15 10:43:17;;;;;;;1.17;0.63;;;22.30;99.90;;;;;;5115833;27;20043;-69
2023/09/15 10:45:57;;;;;;;0.30;0.30;;;22.20;99.90;;;;;;5107787;27;20071;-70
2023/09/15 10:48:46;;;;;;;0.10;0.10;;;22.40;99.90;;;;;;5120161;28;20223;-70
2023/09/15 10:51:12;;;;;;;0.35;0.35;;;22.50;99.90;;;;;;5121099;28;20043;-69
2023/09/15 10:53:49;;;;;;;0.08;0.08;;;22.60;99.90;;;;;;5094850;28;20058;-69
2023/09/15 10:56:16;;;;;;;0.10;0.10;;;22.70;99.90;;;;;;5123010;28;20087;-69
2023/09/15 10:58:44;;;;;;;0.00;0.00;;;22.70;99.90;;;;;;5120972;28;20031;-69
2023/09/15 11:01:10;;;;;;;0.00;0.00;;;23.00;99.90;;;;;;5127352;28;20380;-69
2023/09/15 11:03:39;;;;;;;0.95;0.95;;;23.00;99.90;;;;;;5120350;28;20487;-69
2023/09/15 11:06:08;;;;;;;0.47;0.47;;;23.30;99.90;;;;;;5120872;28;20109;-69
2023/09/15 11:08:35;;;;;;;0.20;0.20;;;23.20;99.90;;;;;;5117102;28;20403;-69
2023/09/15 11:11:08;;;;;;;1.63;0.40;;;23.30;99.90;;;;;;5124629;28;20394;-69
2023/09/15 11:13:35;;;;;;;;;;;23.40;99.90;;;;;;5118849;28;20043;-69
2023/09/15 11:16:01;;;;;;;0.00;0.00;;;23.30;99.90;;;;;;5117785;28;19959;-69
2023/09/15 11:18:27;;;;;;;0.20;0.20;;;23.40;99.90;;;;;;5105450;27;20043;-69
2023/09/15 11:20:55;;;;;;;0.05;0.03;;;23.50;99.90;;;;;;5123243;27;20046;-69
2023/09/15 11:23:24;;;;;;;0.00;0.00;;;23.60;99.90;;;;;;5123890;27;20074;-68
2023/09/15 11:26:03;;;;;;;0.22;0.22;;;23.70;99.90;;;;;;5124304;27;20092;-69
2023/09/15 11:28:35;;;;;;;1.38;0.17;;;23.80;99.90;;;;;;5123692;27;20035;-68
2023/09/15 11:31:05;;;;;;;0.00;0.00;;;23.90;99.90;;;;;;5129864;27;20488;-69
2023/09/15 11:33:31;;;;;;;0.00;0.00;;;23.90;99.90;;;;;;5125626;27;20111;-68
2023/09/15 11:35:57;;;;;;;0.32;0.08;;;24.20;99.90;;;;;;5123702;27;20044;-69
2023/09/15 11:38:24;;;;;;;0.10;0.10;;;23.90;99.90;;;;;;5122551;27;20047;-69
2023/09/15 11:40:50;;;;;;;0.30;0.30;;;24.10;99.90;;;;;;5125801;27;20044;-68
2023/09/15 11:43:20;;;;;;;0.00;0.00;;;24.00;99.90;;;;;;5126643;27;20049;-69
2023/09/15 11:45:48;;;;;;;0.00;0.00;;;24.20;99.90;;;;;;5099262;28;20100;-69
2023/09/15 11:48:14;;;;;;;0.10;0.10;;;24.30;99.90;;;;;;5124085;27;20082;-68
2023/09/15 11:50:40;;;;;;;0.25;0.25;;;24.30;99.90;;;;;;5104777;28;20579;-69
2023/09/15 11:53:06;;;;;;;0.00;0.00;;;24.70;99.90;;;;;;5124786;27;20035;-69
2023/09/15 11:55:33;;;;;;;0.70;0.22;;;24.80;99.90;;;;;;5109032;27;20505;-69
2023/09/15 11:57:59;;;;;;;0.00;0.00;;;24.70;99.90;;;;;;5117017;27;20092;-69
2023/09/15 12:00:30;;;;;;;0.10;0.10;;;24.90;99.90;;;;;;5111139;28;20031;-69
2023/09/15 12:02:56;;;;;;;0.00;0.00;;;25.10;99.90;;;;;;5123867;27;20071;-69
2023/09/15 12:05:22;;;;;;;0.10;0.10;;;25.00;99.90;;;;;;5124173;27;20040;-69
2023/09/15 12:07:49;;;;;;;0.00;0.00;;;25.40;99.90;;;;;;5127391;27;20034;-69
2023/09/15 12:10:16;;;;;;;0.05;0.00;;;25.60;99.90;;;;;;5126199;27;20054;-69
2023/09/15 12:12:43;;;;;;;0.15;0.15;;;25.60;99.90;;;;;;5122912;27;20386;-69
2023/09/15 12:15:09;;;;;;;0.00;0.00;;;25.60;99.90;;;;;;5114590;27;20028;-69
2023/09/15 12:17:34;;;;;;;0.00;0.00;;;25.50;99.90;;;;;;5125499;27;20039;-69
2023/09/15 12:20:04;;;;;;;1.20;1.00;;;25.70;99.90;;;;;;5126916;27;20503;-69
2023/09/15 12:22:31;;;;;;;3.03;0.32;;;25.70;99.70;;;;;;5115765;27;20491;-69
2023/09/15 12:24:58;;;;;;;0.00;0.00;;;25.90;99.90;;;;;;5120513;27;20047;-70
2023/09/15 12:27:26;;;;;;;1.65;0.32;;;26.10;99.90;;;;;;5126803;27;20081;-69
2023/09/15 12:29:53;;;;;;;0.00;0.00;;;26.40;99.90;;;;;;5115616;27;20043;-69
2023/09/15 12:32:26;;;;;;;0.00;0.00;;;26.20;99.90;;;;;;5126520;27;20047;-69
2023/09/15 12:34:55;;;;;;;0.25;0.25;;;26.10;99.90;;;;;;5125464;27;20059;-69
2023/09/15 12:37:21;;;;;;;0.00;0.00;;;26.30;99.90;;;;;;5120656;27;20051;-69
2023/09/15 12:39:47;;;;;;;0.00;0.00;;;26.30;99.90;;;;;;5129200;27;20402;-69
2023/09/15 12:42:13;;;;;;;0.00;0.00;;;26.10;99.90;;;;;;5122803;27;20067;-69
2023/09/15 12:44:38;;;;;;;0.22;0.22;;;26.40;99.90;;;;;;5122159;27;20042;-69
2023/09/15 12:47:05;;;;;;;2.97;0.45;;;26.30;99.00;;;;;;5124494;27;20123;-69